sensor_id;sensor_type;location;lat;lon;timestamp;pressure;altitude;pressure_sealevel;temperature;humidity
83122;BME280;73002;47.238;9.006;2024-01-10T00:02:13;95403.84;;;1.26;56.43
83122;BME280;73002;47.238;9.006;2024-01-10T00:04:38;95397.28;;;1.22;56.61
83122;BME280;73002;47.238;9.006;2024-01-10T00:07:04;95396.59;;;1.31;57.14
83122;BME280;73002;47.238;9.006;2024-01-10T00:09:30;95391.84;;;1.38;57.20
83122;BME280;73002;47.238;9.006;2024-01-10T00:11:55;95386.25;;;1.21;57.83
83122;BME280;73002;47.238;9.006;2024-01-10T00:14:21;95376.22;;;1.41;57.25
83122;BME280;73002;47.238;9.006;2024-01-10T00:16:46;95386.13;;;1.45;56.95
83122;BME280;73002;47.238;9.006;2024-01-10T00:19:12;95388.91;;;1.42;57.53
83122;BME280;73002;47.238;9.006;2024-01-10T00:21:40;95376.78;;;1.44;57.09
83122;BME280;73002;47.238;9.006;2024-01-10T00:24:06;95370.97;;;1.53;56.15
83122;BME280;73002;47.238;9.006;2024-01-10T00:26:34;95359.13;;;1.19;56.74
83122;BME280;73002;47.238;9.006;2024-01-10T00:28:59;95370.88;;;1.21;56.28
83122;BME280;73002;47.238;9.006;2024-01-10T00:31:25;95368.22;;;0.65;57.13
83122;BME280;73002;47.238;9.006;2024-01-10T00:33:50;95377.25;;;0.93;57.06
83122;BME280;73002;47.238;9.006;2024-01-10T00:36:16;95366.47;;;0.54;57.58
83122;BME280;73002;47.238;9.006;2024-01-10T00:38:41;95368.31;;;0.16;59.19
83122;BME280;73002;47.238;9.006;2024-01-10T00:41:06;95372.25;;;0.45;58.82
83122;BME280;73002;47.238;9.006;2024-01-10T00:43:32;95371.31;;;0.34;59.15
83122;BME280;73002;47.238;9.006;2024-01-10T00:45:57;95356.38;;;0.64;57.74
83122;BME280;73002;47.238;9.006;2024-01-10T00:48:25;95368.28;;;0.87;58.01
83122;BME280;73002;47.238;9.006;2024-01-10T00:50:51;95361.41;;;1.10;57.24
83122;BME280;73002;47.238;9.006;2024-01-10T00:53:17;95353.28;;;0.94;57.39
83122;BME280;73002;47.238;9.006;2024-01-10T00:55:47;95362.84;;;1.03;56.68
83122;BME280;73002;47.238;9.006;2024-01-10T00:58:13;95360.88;;;1.07;56.61
83122;BME280;73002;47.238;9.006;2024-01-10T01:00:38;95363.28;;;0.97;57.12
83122;BME280;73002;47.238;9.006;2024-01-10T01:03:04;95368.19;;;1.00;57.18
83122;BME280;73002;47.238;9.006;2024-01-10T01:05:29;95372.50;;;1.00;56.73
83122;BME280;73002;47.238;9.006;2024-01-10T01:07:58;95357.22;;;0.98;56.35
83122;BME280;73002;47.238;9.006;2024-01-10T01:10:24;95370.38;;;1.16;56.26
83122;BME280;73002;47.238;9.006;2024-01-10T01:12:49;95370.88;;;1.21;56.31
83122;BME280;73002;47.238;9.006;2024-01-10T01:15:15;95373.53;;;1.20;56.63
83122;BME280;73002;47.238;9.006;2024-01-10T01:17:43;95375.75;;;1.02;56.54
83122;BME280;73002;47.238;9.006;2024-01-10T01:22:34;95377.97;;;1.17;55.76
83122;BME280;73002;47.238;9.006;2024-01-10T01:24:59;95362.25;;;0.53;57.00
83122;BME280;73002;47.238;9.006;2024-01-10T01:27:27;95364.88;;;0.75;56.49
83122;BME280;73002;47.238;9.006;2024-01-10T01:29:52;95360.09;;;0.60;56.29
83122;BME280;73002;47.238;9.006;2024-01-10T01:32:18;95387.22;;;0.38;57.51
83122;BME280;73002;47.238;9.006;2024-01-10T01:34:43;95383.72;;;0.63;56.48
83122;BME280;73002;47.238;9.006;2024-01-10T01:37:08;95389.81;;;0.49;56.73
83122;BME280;73002;47.238;9.006;2024-01-10T01:39:34;95377.22;;;0.82;56.32
83122;BME280;73002;47.238;9.006;2024-01-10T01:42:00;95364.88;;;0.75;56.18
83122;BME280;73002;47.238;9.006;2024-01-10T01:44:25;95381.19;;;0.74;56.09
83122;BME280;73002;47.238;9.006;2024-01-10T01:46:51;95373.44;;;0.52;56.31
83122;BME280;73002;47.238;9.006;2024-01-10T01:49:16;95380.66;;;0.58;56.67
83122;BME280;73002;47.238;9.006;2024-01-10T01:51:44;95375.44;;;0.60;56.68
83122;BME280;73002;47.238;9.006;2024-01-10T01:54:13;95382.06;;;0.62;56.29
83122;BME280;73002;47.238;9.006;2024-01-10T01:56:40;95379.91;;;0.91;56.04
83122;BME280;73002;47.238;9.006;2024-01-10T01:59:07;95385.28;;;0.88;55.75
83122;BME280;73002;47.238;9.006;2024-01-10T02:01:34;95389.94;;;0.94;55.31
83122;BME280;73002;47.238;9.006;2024-01-10T02:04:01;95389.97;;;0.48;56.69
83122;BME280;73002;47.238;9.006;2024-01-10T02:06:26;95390.78;;;0.24;56.62
83122;BME280;73002;47.238;9.006;2024-01-10T02:08:52;95396.25;;;-0.17;60.30
83122;BME280;73002;47.238;9.006;2024-01-10T02:11:17;95388.56;;;0.19;59.61
83122;BME280;73002;47.238;9.006;2024-01-10T02:13:43;95386.66;;;0.34;60.57
83122;BME280;73002;47.238;9.006;2024-01-10T02:16:10;95383.25;;;0.34;60.34
83122;BME280;73002;47.238;9.006;2024-01-10T02:18:35;95394.66;;;0.65;60.56
83122;BME280;73002;47.238;9.006;2024-01-10T02:21:05;95389.00;;;0.84;59.25
83122;BME280;73002;47.238;9.006;2024-01-10T02:23:30;95391.31;;;0.87;59.74
83122;BME280;73002;47.238;9.006;2024-01-10T02:25:56;95383.63;;;0.87;58.88
83122;BME280;73002;47.238;9.006;2024-01-10T02:28:22;95386.03;;;0.66;60.23
83122;BME280;73002;47.238;9.006;2024-01-10T02:30:50;95383.75;;;0.74;60.31
83122;BME280;73002;47.238;9.006;2024-01-10T02:33:16;95369.72;;;0.56;60.75
83122;BME280;73002;47.238;9.006;2024-01-10T02:38:16;95362.03;;;0.45;61.02
83122;BME280;73002;47.238;9.006;2024-01-10T02:40:45;95376.66;;;0.43;60.95
83122;BME280;73002;47.238;9.006;2024-01-10T02:43:10;95361.81;;;0.48;60.40
83122;BME280;73002;47.238;9.006;2024-01-10T02:45:36;95368.53;;;0.49;59.92
83122;BME280;73002;47.238;9.006;2024-01-10T02:48:01;95375.09;;;0.64;59.71
83122;BME280;73002;47.238;9.006;2024-01-10T02:50:27;95364.75;;;0.66;59.86
83122;BME280;73002;47.238;9.006;2024-01-10T02:52:52;95367.41;;;0.64;59.68
83122;BME280;73002;47.238;9.006;2024-01-10T02:55:18;95383.91;;;0.49;60.22
83122;BME280;73002;47.238;9.006;2024-01-10T02:57:43;95370.88;;;0.52;60.40
83122;BME280;73002;47.238;9.006;2024-01-10T03:00:09;95378.22;;;0.21;62.02
83122;BME280;73002;47.238;9.006;2024-01-10T03:02:38;95378.19;;;0.45;60.85
83122;BME280;73002;47.238;9.006;2024-01-10T03:05:04;95354.72;;;0.63;60.09
83122;BME280;73002;47.238;9.006;2024-01-10T03:07:31;95373.03;;;0.81;60.24
83122;BME280;73002;47.238;9.006;2024-01-10T03:09:56;95370.25;;;0.72;60.92
83122;BME280;73002;47.238;9.006;2024-01-10T03:12:23;95377.44;;;0.67;61.21
83122;BME280;73002;47.238;9.006;2024-01-10T03:14:49;95375.78;;;0.66;61.45
83122;BME280;73002;47.238;9.006;2024-01-10T03:17:15;95359.63;;;0.66;60.92
83122;BME280;73002;47.238;9.006;2024-01-10T03:19:42;95353.59;;;0.67;61.20
83122;BME280;73002;47.238;9.006;2024-01-10T03:22:12;95356.69;;;0.59;61.58
83122;BME280;73002;47.238;9.006;2024-01-10T03:24:37;95372.91;;;0.71;60.95
83122;BME280;73002;47.238;9.006;2024-01-10T03:27:06;95376.28;;;0.71;61.56
83122;BME280;73002;47.238;9.006;2024-01-10T03:29:32;95380.25;;;0.75;60.96
83122;BME280;73002;47.238;9.006;2024-01-10T03:31:57;95386.34;;;0.50;62.04
83122;BME280;73002;47.238;9.006;2024-01-10T03:34:25;95386.94;;;0.54;62.14
83122;BME280;73002;47.238;9.006;2024-01-10T03:36:51;95381.75;;;0.78;61.44
83122;BME280;73002;47.238;9.006;2024-01-10T03:39:16;95381.75;;;0.67;61.51
83122;BME280;73002;47.238;9.006;2024-01-10T03:41:42;95383.72;;;0.63;61.00
83122;BME280;73002;47.238;9.006;2024-01-10T03:44:07;95389.31;;;0.80;60.73
83122;BME280;73002;47.238;9.006;2024-01-10T03:46:33;95393.22;;;0.50;61.63
83122;BME280;73002;47.238;9.006;2024-01-10T03:48:58;95379.72;;;0.48;61.13
83122;BME280;73002;47.238;9.006;2024-01-10T03:51:24;95392.34;;;0.38;62.46
83122;BME280;73002;47.238;9.006;2024-01-10T03:56:15;95385.81;;;0.69;61.43
83122;BME280;73002;47.238;9.006;2024-01-10T03:58:40;95396.09;;;0.81;61.24
83122;BME280;73002;47.238;9.006;2024-01-10T04:01:08;95386.06;;;0.77;60.84
83122;BME280;73002;47.238;9.006;2024-01-10T04:03:34;95386.91;;;0.89;61.04
83122;BME280;73002;47.238;9.006;2024-01-10T04:06:00;95402.53;;;1.09;60.23
83122;BME280;73002;47.238;9.006;2024-01-10T04:08:30;95389.03;;;1.07;60.39
83122;BME280;73002;47.238;9.006;2024-01-10T04:10:57;95396.94;;;1.04;60.48
83122;BME280;73002;47.238;9.006;2024-01-10T04:13:23;95393.31;;;0.95;60.56
83122;BME280;73002;47.238;9.006;2024-01-10T04:15:49;95404.75;;;1.13;60.58
83122;BME280;73002;47.238;9.006;2024-01-10T04:18:14;95406.94;;;1.18;60.35
83122;BME280;73002;47.238;9.006;2024-01-10T04:20:44;95406.03;;;1.08;60.77
83122;BME280;73002;47.238;9.006;2024-01-10T04:23:10;95407.53;;;1.22;60.39
83122;BME280;73002;47.238;9.006;2024-01-10T04:25:35;95406.38;;;1.03;60.53
83122;BME280;73002;47.238;9.006;2024-01-10T04:28:00;95410.69;;;1.14;60.47
83122;BME280;73002;47.238;9.006;2024-01-10T04:30:27;95415.69;;;1.15;60.70
83122;BME280;73002;47.238;9.006;2024-01-10T04:32:55;95400.56;;;1.01;60.63
83122;BME280;73002;47.238;9.006;2024-01-10T04:35:20;95413.38;;;1.24;60.22
83122;BME280;73002;47.238;9.006;2024-01-10T04:37:48;95406.84;;;1.20;59.45
83122;BME280;73002;47.238;9.006;2024-01-10T04:40:15;95416.75;;;1.24;59.75
83122;BME280;73002;47.238;9.006;2024-01-10T04:42:40;95404.75;;;1.13;60.35
83122;BME280;73002;47.238;9.006;2024-01-10T04:45:06;95405.69;;;1.46;59.01
83122;BME280;73002;47.238;9.006;2024-01-10T04:47:32;95416.06;;;1.33;59.64
83122;BME280;73002;47.238;9.006;2024-01-10T04:49:58;95409.84;;;1.02;60.72
83122;BME280;73002;47.238;9.006;2024-01-10T04:52:23;95402.84;;;0.93;61.27
83122;BME280;73002;47.238;9.006;2024-01-10T04:54:52;95407.31;;;1.13;60.17
83122;BME280;73002;47.238;9.006;2024-01-10T04:57:18;95400.88;;;0.96;61.03
83122;BME280;73002;47.238;9.006;2024-01-10T04:59:43;95405.31;;;0.94;60.93
83122;BME280;73002;47.238;9.006;2024-01-10T05:02:09;95404.50;;;0.94;61.67
83122;BME280;73002;47.238;9.006;2024-01-10T05:04:36;95391.91;;;0.91;61.36
83122;BME280;73002;47.238;9.006;2024-01-10T05:07:01;95407.31;;;1.13;60.92
83122;BME280;73002;47.238;9.006;2024-01-10T05:09:29;95396.56;;;0.86;60.96
83122;BME280;73002;47.238;9.006;2024-01-10T05:14:20;95398.72;;;1.14;60.57
83122;BME280;73002;47.238;9.006;2024-01-10T05:16:46;95399.78;;;0.65;61.50
83122;BME280;73002;47.238;9.006;2024-01-10T05:19:13;95392.03;;;1.12;60.33
83122;BME280;73002;47.238;9.006;2024-01-10T05:21:42;95384.25;;;1.13;60.47
83122;BME280;73002;47.238;9.006;2024-01-10T05:24:07;95383.53;;;1.00;60.58
83122;BME280;73002;47.238;9.006;2024-01-10T05:26:33;95394.16;;;1.07;60.44
83122;BME280;73002;47.238;9.006;2024-01-10T05:29:01;95388.66;;;1.00;60.58
83122;BME280;73002;47.238;9.006;2024-01-10T05:31:26;95384.13;;;0.92;60.91
83122;BME280;73002;47.238;9.006;2024-01-10T05:33:52;95399.38;;;0.94;61.43
83122;BME280;73002;47.238;9.006;2024-01-10T05:36:21;95400.31;;;1.04;60.98
83122;BME280;73002;47.238;9.006;2024-01-10T05:38:47;95398.22;;;1.09;60.59
83122;BME280;73002;47.238;9.006;2024-01-10T05:41:13;95391.00;;;1.03;60.46
83122;BME280;73002;47.238;9.006;2024-01-10T05:43:39;95392.38;;;0.96;61.39
83122;BME280;73002;47.238;9.006;2024-01-10T05:46:05;95378.19;;;1.03;60.82
83122;BME280;73002;47.238;9.006;2024-01-10T05:48:30;95382.38;;;0.93;60.36
83122;BME280;73002;47.238;9.006;2024-01-10T05:50:57;95391.44;;;0.97;60.80
83122;BME280;73002;47.238;9.006;2024-01-10T05:53:24;95395.66;;;0.98;60.65
83122;BME280;73002;47.238;9.006;2024-01-10T05:55:50;95394.50;;;1.13;59.94
83122;BME280;73002;47.238;9.006;2024-01-10T05:58:16;95397.53;;;1.19;60.09
83122;BME280;73002;47.238;9.006;2024-01-10T06:00:41;95401.81;;;1.18;59.89
83122;BME280;73002;47.238;9.006;2024-01-10T06:03:08;95392.53;;;1.28;59.39
83122;BME280;73002;47.238;9.006;2024-01-10T06:05:34;95397.53;;;1.07;59.77
83122;BME280;73002;47.238;9.006;2024-01-10T06:07:59;95397.75;;;1.04;59.95
83122;BME280;73002;47.238;9.006;2024-01-10T06:10:25;95399.81;;;0.76;60.79
83122;BME280;73002;47.238;9.006;2024-01-10T06:12:50;95407.53;;;0.99;59.98
83122;BME280;73002;47.238;9.006;2024-01-10T06:15:16;95406.47;;;1.02;60.06
83122;BME280;73002;47.238;9.006;2024-01-10T06:17:43;95406.47;;;1.02;59.86
83122;BME280;73002;47.238;9.006;2024-01-10T06:20:09;95403.13;;;1.01;59.38
83122;BME280;73002;47.238;9.006;2024-01-10T06:22:34;95418.25;;;1.15;59.26
83122;BME280;73002;47.238;9.006;2024-01-10T06:25:00;95423.50;;;1.14;59.42
83122;BME280;73002;47.238;9.006;2024-01-10T06:27:25;95414.78;;;1.16;59.07
83122;BME280;73002;47.238;9.006;2024-01-10T06:29:51;95423.34;;;0.93;59.91
83122;BME280;73002;47.238;9.006;2024-01-10T06:32:16;95420.22;;;1.01;59.88
83122;BME280;73002;47.238;9.006;2024-01-10T06:34:42;95423.03;;;1.09;59.53
83122;BME280;73002;47.238;9.006;2024-01-10T06:37:08;95427.44;;;1.18;59.12
83122;BME280;73002;47.238;9.006;2024-01-10T06:39:34;95424.28;;;0.92;60.04
83122;BME280;73002;47.238;9.006;2024-01-10T06:41:59;95429.84;;;0.97;60.15
83122;BME280;73002;47.238;9.006;2024-01-10T06:44:25;95416.84;;;1.00;59.71
83122;BME280;73002;47.238;9.006;2024-01-10T06:46:53;95426.50;;;1.08;59.76
83122;BME280;73002;47.238;9.006;2024-01-10T06:49:18;95426.75;;;1.16;59.71
83122;BME280;73002;47.238;9.006;2024-01-10T06:51:44;95421.28;;;1.21;59.53
83122;BME280;73002;47.238;9.006;2024-01-10T06:54:09;95437.16;;;1.26;59.54
83122;BME280;73002;47.238;9.006;2024-01-10T06:56:35;95426.50;;;1.08;60.15
83122;BME280;73002;47.238;9.006;2024-01-10T06:59:04;95428.03;;;1.22;59.83
83122;BME280;73002;47.238;9.006;2024-01-10T07:01:30;95447.25;;;1.27;59.54
83122;BME280;73002;47.238;9.006;2024-01-10T07:03:56;95437.50;;;1.32;59.66
83122;BME280;73002;47.238;9.006;2024-01-10T07:06:23;95428.84;;;1.11;59.41
83122;BME280;73002;47.238;9.006;2024-01-10T07:08:52;95430.16;;;1.16;59.96
83122;BME280;73002;47.238;9.006;2024-01-10T07:11:18;95433.06;;;1.23;59.61
83122;BME280;73002;47.238;9.006;2024-01-10T07:13:47;95436.97;;;0.93;60.34
83122;BME280;73002;47.238;9.006;2024-01-10T07:16:13;95442.97;;;1.16;60.24
83122;BME280;73002;47.238;9.006;2024-01-10T07:18:40;95444.38;;;1.32;59.44
83122;BME280;73002;47.238;9.006;2024-01-10T07:21:08;95452.63;;;1.24;60.44
83122;BME280;73002;47.238;9.006;2024-01-10T07:23:34;95443.78;;;1.40;59.80
83122;BME280;73002;47.238;9.006;2024-01-10T07:26:01;95441.34;;;1.49;59.24
83122;BME280;73002;47.238;9.006;2024-01-10T07:28:26;95452.78;;;1.56;59.43
83122;BME280;73002;47.238;9.006;2024-01-10T07:30:52;95453.22;;;1.62;58.89
83122;BME280;73002;47.238;9.006;2024-01-10T07:33:17;95451.69;;;1.36;59.89
83122;BME280;73002;47.238;9.006;2024-01-10T07:35:43;95458.13;;;1.53;59.51
83122;BME280;73002;47.238;9.006;2024-01-10T07:38:08;95452.06;;;1.54;59.17
83122;BME280;73002;47.238;9.006;2024-01-10T07:40:37;95467.56;;;1.75;58.42
83122;BME280;73002;47.238;9.006;2024-01-10T07:43:02;95474.91;;;1.80;59.01
83122;BME280;73002;47.238;9.006;2024-01-10T07:45:28;95470.47;;;1.82;58.56
83122;BME280;73002;47.238;9.006;2024-01-10T07:47:54;95471.75;;;1.65;58.73
83122;BME280;73002;47.238;9.006;2024-01-10T07:50:19;95461.84;;;1.38;59.59
83122;BME280;73002;47.238;9.006;2024-01-10T07:52:45;95456.25;;;1.33;59.54
83122;BME280;73002;47.238;9.006;2024-01-10T07:55:14;95460.56;;;1.32;60.01
83122;BME280;73002;47.238;9.006;2024-01-10T07:57:42;95464.63;;;1.46;60.25
83122;BME280;73002;47.238;9.006;2024-01-10T08:00:08;95483.53;;;1.68;59.94
83122;BME280;73002;47.238;9.006;2024-01-10T08:02:39;95482.13;;;1.64;59.76
83122;BME280;73002;47.238;9.006;2024-01-10T08:05:06;95465.22;;;1.84;58.97
83122;BME280;73002;47.238;9.006;2024-01-10T08:07:34;95475.38;;;1.85;58.52
83122;BME280;73002;47.238;9.006;2024-01-10T08:10:05;95465.81;;;1.65;59.23
83122;BME280;73002;47.238;9.006;2024-01-10T08:12:30;95480.16;;;1.67;59.74
83122;BME280;73002;47.238;9.006;2024-01-10T08:14:56;95480.03;;;1.58;60.43
83122;BME280;73002;47.238;9.006;2024-01-10T08:17:21;95479.44;;;1.76;59.61
83122;BME280;73002;47.238;9.006;2024-01-10T08:19:48;95482.09;;;2.09;58.63
83122;BME280;73002;47.238;9.006;2024-01-10T08:22:18;95485.69;;;2.29;58.07
83122;BME280;73002;47.238;9.006;2024-01-10T08:24:48;95481.53;;;1.94;59.58
83122;BME280;73002;47.238;9.006;2024-01-10T08:27:13;95479.19;;;2.13;59.16
83122;BME280;73002;47.238;9.006;2024-01-10T08:29:39;95488.44;;;2.48;57.50
83122;BME280;73002;47.238;9.006;2024-01-10T08:32:05;95471.66;;;2.44;57.39
83122;BME280;73002;47.238;9.006;2024-01-10T08:34:30;95482.72;;;2.56;57.29
83122;BME280;73002;47.238;9.006;2024-01-10T08:36:56;95488.56;;;2.79;56.46
83122;BME280;73002;47.238;9.006;2024-01-10T08:39:21;95481.31;;;2.84;55.94
83122;BME280;73002;47.238;9.006;2024-01-10T08:41:51;95492.88;;;2.90;55.62
83122;BME280;73002;47.238;9.006;2024-01-10T08:44:16;95492.13;;;2.99;55.54
83122;BME280;73002;47.238;9.006;2024-01-10T08:46:42;95489.91;;;2.62;56.77
83122;BME280;73002;47.238;9.006;2024-01-10T08:49:09;95476.09;;;3.28;54.67
83122;BME280;73002;47.238;9.006;2024-01-10T08:51:35;95469.31;;;3.58;53.32
83122;BME280;73002;47.238;9.006;2024-01-10T08:54:00;95486.19;;;3.71;53.83
83122;BME280;73002;47.238;9.006;2024-01-10T08:56:26;95468.00;;;3.63;54.40
83122;BME280;73002;47.238;9.006;2024-01-10T08:58:52;95486.63;;;4.17;52.46
83122;BME280;73002;47.238;9.006;2024-01-10T09:01:18;95481.47;;;4.17;52.71
83122;BME280;73002;47.238;9.006;2024-01-10T09:03:44;95469.22;;;4.00;53.09
83122;BME280;73002;47.238;9.006;2024-01-10T09:06:11;95489.50;;;4.34;53.00
83122;BME280;73002;47.238;9.006;2024-01-10T09:08:36;95493.75;;;4.74;51.73
83122;BME280;73002;47.238;9.006;2024-01-10T09:11:05;95490.19;;;5.53;49.84
83122;BME280;73002;47.238;9.006;2024-01-10T09:13:31;95488.53;;;6.09;47.55
83122;BME280;73002;47.238;9.006;2024-01-10T09:15:56;95487.75;;;6.54;46.26
83122;BME280;73002;47.238;9.006;2024-01-10T09:18:22;95502.91;;;6.39;47.36
83122;BME280;73002;47.238;9.006;2024-01-10T09:20:50;95510.66;;;7.02;45.67
83122;BME280;73002;47.238;9.006;2024-01-10T09:23:19;95496.53;;;6.61;45.71
83122;BME280;73002;47.238;9.006;2024-01-10T09:25:44;95497.81;;;6.75;46.42
83122;BME280;73002;47.238;9.006;2024-01-10T09:30:45;95507.84;;;7.14;44.14
83122;BME280;73002;47.238;9.006;2024-01-10T09:33:10;95510.78;;;6.83;44.96
83122;BME280;73002;47.238;9.006;2024-01-10T09:35:36;95521.19;;;6.55;46.29
83122;BME280;73002;47.238;9.006;2024-01-10T09:38:02;95523.22;;;6.97;45.37
83122;BME280;73002;47.238;9.006;2024-01-10T09:40:31;95528.22;;;6.81;45.41
83122;BME280;73002;47.238;9.006;2024-01-10T09:42:57;95531.59;;;6.91;46.34
83122;BME280;73002;47.238;9.006;2024-01-10T09:45:26;95526.91;;;7.13;44.78
83122;BME280;73002;47.238;9.006;2024-01-10T09:47:56;95530.94;;;7.51;43.82
83122;BME280;73002;47.238;9.006;2024-01-10T09:50:22;95540.06;;;7.37;44.94
83122;BME280;73002;47.238;9.006;2024-01-10T09:55:14;95538.81;;;8.20;42.31
83122;BME280;73002;47.238;9.006;2024-01-10T09:57:41;95541.66;;;7.56;44.77
83122;BME280;73002;47.238;9.006;2024-01-10T10:00:10;95530.44;;;7.48;43.46
83122;BME280;73002;47.238;9.006;2024-01-10T10:02:38;95530.34;;;7.57;43.83
83122;BME280;73002;47.238;9.006;2024-01-10T10:05:12;95534.50;;;7.50;44.68
83122;BME280;73002;47.238;9.006;2024-01-10T10:07:48;95535.59;;;7.48;44.51
83122;BME280;73002;47.238;9.006;2024-01-10T10:10:14;95526.88;;;7.49;44.40
83122;BME280;73002;47.238;9.006;2024-01-10T10:12:52;95529.81;;;7.54;43.85
83122;BME280;73002;47.238;9.006;2024-01-10T10:15:19;95518.13;;;7.23;45.23
83122;BME280;73002;47.238;9.006;2024-01-10T10:17:48;95522.31;;;7.42;45.09
83122;BME280;73002;47.238;9.006;2024-01-10T10:20:27;95530.31;;;7.31;44.92
83122;BME280;73002;47.238;9.006;2024-01-10T10:23:00;95523.28;;;7.41;44.78
83122;BME280;73002;47.238;9.006;2024-01-10T10:25:50;95523.50;;;6.94;45.82
83122;BME280;73002;47.238;9.006;2024-01-10T10:28:15;95510.19;;;6.89;46.01
83122;BME280;73002;47.238;9.006;2024-01-10T10:30:40;95521.91;;;6.93;46.44
83122;BME280;73002;47.238;9.006;2024-01-10T10:33:06;95523.66;;;7.29;45.53
83122;BME280;73002;47.238;9.006;2024-01-10T10:35:34;95531.00;;;7.86;43.51
83122;BME280;73002;47.238;9.006;2024-01-10T10:38:00;95514.91;;;7.48;44.36
83122;BME280;73002;47.238;9.006;2024-01-10T10:40:25;95521.81;;;7.03;45.40
83122;BME280;73002;47.238;9.006;2024-01-10T10:42:57;95521.50;;;6.15;47.38
83122;BME280;73002;47.238;9.006;2024-01-10T10:45:23;95519.56;;;6.54;46.87
83122;BME280;73002;47.238;9.006;2024-01-10T10:48:12;95502.53;;;6.06;48.13
83122;BME280;73002;47.238;9.006;2024-01-10T10:50:54;95518.28;;;6.40;47.52
83122;BME280;73002;47.238;9.006;2024-01-10T10:53:23;95497.31;;;6.16;46.78
83122;BME280;73002;47.238;9.006;2024-01-10T10:55:50;95520.63;;;6.79;46.93
83122;BME280;73002;47.238;9.006;2024-01-10T10:58:17;95510.81;;;6.37;48.35
83122;BME280;73002;47.238;9.006;2024-01-10T11:00:45;95520.41;;;6.73;46.88
83122;BME280;73002;47.238;9.006;2024-01-10T11:03:13;95519.09;;;6.41;47.48
83122;BME280;73002;47.238;9.006;2024-01-10T11:05:40;95509.66;;;6.22;47.21
83122;BME280;73002;47.238;9.006;2024-01-10T11:08:08;95506.50;;;6.28;47.34
83122;BME280;73002;47.238;9.006;2024-01-10T11:10:38;95489.25;;;6.29;47.62
83122;BME280;73002;47.238;9.006;2024-01-10T11:15:59;95501.53;;;6.62;46.99
83122;BME280;73002;47.238;9.006;2024-01-10T11:21:43;95486.78;;;5.99;47.83
83122;BME280;73002;47.238;9.006;2024-01-10T11:24:14;95494.56;;;6.27;47.32
83122;BME280;73002;47.238;9.006;2024-01-10T11:26:41;95494.50;;;6.09;47.41
83122;BME280;73002;47.238;9.006;2024-01-10T11:29:06;95494.88;;;6.14;47.67
83122;BME280;73002;47.238;9.006;2024-01-10T11:31:32;95493.25;;;5.76;47.84
83122;BME280;73002;47.238;9.006;2024-01-10T11:34:00;95493.34;;;5.27;49.35
83122;BME280;73002;47.238;9.006;2024-01-10T11:36:26;95498.25;;;5.11;49.66
83122;BME280;73002;47.238;9.006;2024-01-10T11:41:34;95488.47;;;4.75;51.02
83122;BME280;73002;47.238;9.006;2024-01-10T11:46:35;95478.84;;;5.16;50.65
83122;BME280;73002;47.238;9.006;2024-01-10T11:49:01;95467.16;;;5.22;50.34
83122;BME280;73002;47.238;9.006;2024-01-10T11:51:27;95473.41;;;5.19;50.55
83122;BME280;73002;47.238;9.006;2024-01-10T11:53:52;95466.63;;;5.18;51.46
83122;BME280;73002;47.238;9.006;2024-01-10T11:56:19;95479.59;;;5.46;50.17
83122;BME280;73002;47.238;9.006;2024-01-10T11:59:01;95465.72;;;5.57;49.97
83122;BME280;73002;47.238;9.006;2024-01-10T12:01:27;95468.03;;;5.50;50.45
83122;BME280;73002;47.238;9.006;2024-01-10T12:03:53;95465.25;;;5.24;50.58
83122;BME280;73002;47.238;9.006;2024-01-10T12:06:21;95466.44;;;5.49;50.66
83122;BME280;73002;47.238;9.006;2024-01-10T12:08:47;95455.25;;;5.68;49.71
83122;BME280;73002;47.238;9.006;2024-01-10T12:11:13;95461.91;;;5.61;49.70
83122;BME280;73002;47.238;9.006;2024-01-10T12:13:38;95460.56;;;5.57;50.40
83122;BME280;73002;47.238;9.006;2024-01-10T12:16:05;95453.75;;;5.56;50.11
83122;BME280;73002;47.238;9.006;2024-01-10T12:18:30;95469.78;;;5.59;50.38
83122;BME280;73002;47.238;9.006;2024-01-10T12:20:55;95460.97;;;5.90;49.11
83122;BME280;73002;47.238;9.006;2024-01-10T12:23:21;95472.50;;;5.58;50.21
83122;BME280;73002;47.238;9.006;2024-01-10T12:25:48;95469.03;;;5.77;49.62
83122;BME280;73002;47.238;9.006;2024-01-10T12:28:17;95469.47;;;5.72;49.25
83122;BME280;73002;47.238;9.006;2024-01-10T12:30:43;95469.53;;;5.53;49.88
83122;BME280;73002;47.238;9.006;2024-01-10T12:35:34;95463.78;;;5.12;51.76
83122;BME280;73002;47.238;9.006;2024-01-10T12:37:59;95461.19;;;5.21;51.43
83122;BME280;73002;47.238;9.006;2024-01-10T12:40:28;95472.25;;;5.51;51.05
83122;BME280;73002;47.238;9.006;2024-01-10T12:43:06;95466.63;;;4.99;50.97
83122;BME280;73002;47.238;9.006;2024-01-10T12:45:31;95460.84;;;5.54;50.70
83122;BME280;73002;47.238;9.006;2024-01-10T12:47:57;95459.66;;;5.85;50.20
83122;BME280;73002;47.238;9.006;2024-01-10T12:50:23;95477.00;;;5.56;51.07
83122;BME280;73002;47.238;9.006;2024-01-10T12:52:54;95479.69;;;5.64;51.52
83122;BME280;73002;47.238;9.006;2024-01-10T12:55:20;95469.91;;;5.67;50.59
83122;BME280;73002;47.238;9.006;2024-01-10T12:57:47;95475.44;;;5.35;51.82
83122;BME280;73002;47.238;9.006;2024-01-10T13:00:12;95459.06;;;5.92;51.00
83122;BME280;73002;47.238;9.006;2024-01-10T13:02:38;95461.50;;;6.03;50.48
83122;BME280;73002;47.238;9.006;2024-01-10T13:05:08;95467.47;;;5.94;50.60
83122;BME280;73002;47.238;9.006;2024-01-10T13:07:37;95475.88;;;6.15;50.01
83122;BME280;73002;47.238;9.006;2024-01-10T13:10:06;95473.03;;;5.61;52.02
83122;BME280;73002;47.238;9.006;2024-01-10T13:12:31;95484.78;;;5.83;51.42
83122;BME280;73002;47.238;9.006;2024-01-10T13:14:57;95474.06;;;5.41;51.99
83122;BME280;73002;47.238;9.006;2024-01-10T13:17:22;95470.88;;;5.57;51.74
83122;BME280;73002;47.238;9.006;2024-01-10T13:19:48;95482.56;;;5.51;52.17
83122;BME280;73002;47.238;9.006;2024-01-10T13:22:15;95463.91;;;5.10;53.24
83122;BME280;73002;47.238;9.006;2024-01-10T13:24:44;95475.44;;;5.25;52.86
83122;BME280;73002;47.238;9.006;2024-01-10T13:27:13;95469.06;;;5.10;53.40
83122;BME280;73002;47.238;9.006;2024-01-10T13:29:39;95471.38;;;5.13;52.87
83122;BME280;73002;47.238;9.006;2024-01-10T13:32:06;95491.06;;;5.14;52.54
83122;BME280;73002;47.238;9.006;2024-01-10T13:34:31;95481.97;;;4.90;53.28
83122;BME280;73002;47.238;9.006;2024-01-10T13:37:00;95490.53;;;5.01;53.27